TimeEST,TemperatureF,Dew PointF,Humidity,Sea Level PressureIn,VisibilityMPH,Wind Direction,Wind SpeedMPH,Gust SpeedMPH,PrecipitationIn,Events,Conditions,WindDirDegrees,DateUTC
12:53 AM,28.0,21.0,75,30.26,10.0,NW,3.5,-,N/A,,Clear,320,2012-12-26 05:53:00
1:53 AM,28.0,21.0,75,30.30,10.0,North,4.6,-,N/A,,Clear,350,2012-12-26 06:53:00
2:53 AM,27.0,21.0,78,30.29,10.0,North,6.9,-,N/A,,Clear,360,2012-12-26 07:53:00
3:53 AM,26.1,19.9,78,30.29,10.0,NNE,3.5,-,N/A,,Clear,30,2012-12-26 08:53:00
4:53 AM,25.0,19.0,78,30.28,10.0,NNE,3.5,-,N/A,,Clear,20,2012-12-26 09:53:00
5:53 AM,24.1,18.0,77,30.29,10.0,North,8.1,-,N/A,,Clear,350,2012-12-26 10:53:00
6:53 AM,24.1,16.0,71,30.30,10.0,North,9.2,-,N/A,,Clear,10,2012-12-26 11:53:00
7:53 AM,24.1,15.1,69,30.30,10.0,North,8.1,-,N/A,,Clear,10,2012-12-26 12:53:00
8:53 AM,25.0,14.0,63,30.30,10.0,NNE,11.5,-,N/A,,Clear,20,2012-12-26 13:53:00
9:53 AM,27.0,15.1,61,30.30,10.0,North,10.4,-,N/A,,Clear,10,2012-12-26 14:53:00
10:53 AM,28.0,16.0,61,30.27,10.0,NNE,6.9,-,N/A,,Clear,20,2012-12-26 15:53:00
11:53 AM,28.0,16.0,61,30.22,10.0,North,6.9,-,N/A,,Clear,360,2012-12-26 16:53:00
12:53 PM,28.9,16.0,58,30.21,10.0,North,9.2,-,N/A,,Clear,360,2012-12-26 17:53:00
1:53 PM,28.9,17.1,61,30.19,10.0,NNE,6.9,-,N/A,,Clear,20,2012-12-26 18:53:00
2:53 PM,28.9,17.1,61,30.16,10.0,NNE,6.9,-,N/A,,Overcast,30,2012-12-26 19:53:00
3:53 PM,30.0,17.1,59,30.16,10.0,North,5.8,-,N/A,,Overcast,10,2012-12-26 20:53:00
4:37 PM,30.2,17.6,60,30.11,10.0,NNE,8.1,-,N/A,,Overcast,20,2012-12-26 21:37:00
4:53 PM,30.0,18.0,61,30.11,10.0,NNE,9.2,-,N/A,,Overcast,20,2012-12-26 21:53:00
5:05 PM,30.2,17.6,60,30.09,10.0,North,8.1,-,N/A,,Overcast,10,2012-12-26 22:05:00
5:53 PM,33.1,24.1,70,30.04,10.0,NE,11.5,20.7,0.00,Snow,Light Snow,50,2012-12-26 22:53:00
6:01 PM,33.8,24.8,70,30.03,2.5,NE,12.7,19.6,0.00,Snow,Light Snow,50,2012-12-26 23:01:00
6:09 PM,32.0,26.6,80,30.03,1.0,NE,11.5,18.4,0.00,Snow,Light Snow,40,2012-12-26 23:09:00
6:11 PM,32.0,26.6,80,30.03,0.8,NE,10.4,18.4,0.01,Snow,Light Snow,50,2012-12-26 23:11:00
6:25 PM,32.0,28.4,87,30.02,0.5,NE,9.2,16.1,0.03,Fog-Snow,Snow,50,2012-12-26 23:25:00
6:35 PM,32.0,28.4,87,30.01,0.5,NE,12.7,20.7,0.05,Fog-Snow,Snow,40,2012-12-26 23:35:00
6:53 PM,32.0,28.9,88,30.00,0.5,NE,10.4,-,0.07,Fog-Snow,Snow,50,2012-12-26 23:53:00
7:06 PM,32.0,30.2,93,29.97,0.8,NNE,11.5,16.1,0.02,Snow,Light Snow,30,2012-12-27 00:06:00
7:37 PM,32.0,30.2,93,29.96,1.0,NE,9.2,16.1,0.06,Snow,Light Snow,50,2012-12-27 00:37:00
7:53 PM,33.1,30.0,89,29.96,1.8,NE,9.2,17.3,0.08,Snow,Light Snow,50,2012-12-27 00:53:00
8:12 PM,33.8,30.2,87,29.92,0.8,NE,9.2,26.5,0.02,Snow,Light Snow,40,2012-12-27 01:12:00
8:36 PM,33.8,30.2,87,29.90,1.2,NE,9.2,19.6,0.06,Snow,Light Snow,40,2012-12-27 01:36:00
8:53 PM,33.1,30.9,92,29.88,3.0,NE,8.1,16.1,0.10,Rain,Rain,40,2012-12-27 01:53:00
9:53 PM,35.1,30.9,85,29.86,4.0,ENE,10.4,17.3,0.05,Snow,Light Snow,60,2012-12-27 02:53:00
10:21 PM,35.6,30.2,81,29.81,4.0,NE,13.8,24.2,0.03,Snow,Light Snow,50,2012-12-27 03:21:00
10:53 PM,35.1,30.9,85,29.77,8.0,NNE,11.5,20.7,0.05,Snow,Light Snow,30,2012-12-27 03:53:00
11:53 PM,36.0,32.0,86,29.68,5.0,NE,12.7,24.2,0.01,Rain,Light Rain,40,2012-12-27 04:53:00